sensor_id;sensor_type;location;lat;lon;timestamp;pressure;altitude;pressure_sealevel;temperature;humidity
31096;BME280;17749;51.962;8.560;2023-07-20T05:01:16;99837.59;;;15.14;100.00
31096;BME280;17749;51.962;8.560;2023-07-20T05:03:43;99845.78;;;15.12;100.00
31096;BME280;17749;51.962;8.560;2023-07-20T05:06:15;99843.16;;;15.11;100.00
31096;BME280;17749;51.962;8.560;2023-07-20T05:08:44;99834.00;;;15.15;100.00
31096;BME280;17749;51.962;8.560;2023-07-20T05:11:12;99847.78;;;15.23;100.00
31096;BME280;17749;51.962;8.560;2023-07-20T05:13:39;99846.63;;;15.27;100.00
31096;BME280;17749;51.962;8.560;2023-07-20T05:16:06;99845.47;;;15.31;100.00
31096;BME280;17749;51.962;8.560;2023-07-20T05:18:34;99859.44;;;15.37;100.00
31096;BME280;17749;51.962;8.560;2023-07-20T05:21:01;99857.72;;;15.36;100.00
31096;BME280;17749;51.962;8.560;2023-07-20T05:23:28;99850.41;;;15.38;100.00
31096;BME280;17749;51.962;8.560;2023-07-20T05:25:56;99856.34;;;15.43;100.00
31096;BME280;17749;51.962;8.560;2023-07-20T05:28:25;99849.00;;;15.46;100.00
31096;BME280;17749;51.962;8.560;2023-07-20T05:30:53;99855.00;;;15.50;100.00
31096;BME280;17749;51.962;8.560;2023-07-20T05:33:21;99863.81;;;15.52;100.00
31096;BME280;17749;51.962;8.560;2023-07-20T05:35:48;99866.88;;;15.60;100.00
31096;BME280;17749;51.962;8.560;2023-07-20T05:38:15;99877.19;;;15.66;100.00
31096;BME280;17749;51.962;8.560;2023-07-20T05:40:44;99874.91;;;15.74;100.00
31096;BME280;17749;51.962;8.560;2023-07-20T05:43:11;99876.44;;;15.78;100.00
31096;BME280;17749;51.962;8.560;2023-07-20T05:45:41;99880.66;;;15.83;100.00
31096;BME280;17749;51.962;8.560;2023-07-20T05:48:09;99872.19;;;15.89;100.00
31096;BME280;17749;51.962;8.560;2023-07-20T05:50:43;99880.16;;;15.90;100.00
31096;BME280;17749;51.962;8.560;2023-07-20T05:53:11;99875.44;;;15.94;100.00
31096;BME280;17749;51.962;8.560;2023-07-20T05:55:38;99876.22;;;15.96;100.00
31096;BME280;17749;51.962;8.560;2023-07-20T05:58:07;99878.91;;;15.96;100.00
31096;BME280;17749;51.962;8.560;2023-07-20T06:00:34;99865.56;;;15.94;100.00
31096;BME280;17749;51.962;8.560;2023-07-20T06:03:01;99876.94;;;15.98;100.00
31096;BME280;17749;51.962;8.560;2023-07-20T06:05:29;99872.03;;;16.05;100.00
31096;BME280;17749;51.962;8.560;2023-07-20T06:07:57;99865.41;;;16.10;100.00
31096;BME280;17749;51.962;8.560;2023-07-20T06:10:25;99859.81;;;16.13;100.00
31096;BME280;17749;51.962;8.560;2023-07-20T06:12:53;99877.88;;;16.11;100.00
31096;BME280;17749;51.962;8.560;2023-07-20T06:15:31;99879.50;;;16.14;100.00
31096;BME280;17749;51.962;8.560;2023-07-20T06:17:58;99875.63;;;16.18;100.00
31096;BME280;17749;51.962;8.560;2023-07-20T06:20:26;99883.38;;;16.23;100.00
31096;BME280;17749;51.962;8.560;2023-07-20T06:22:53;99893.72;;;16.29;100.00
31096;BME280;17749;51.962;8.560;2023-07-20T06:25:20;99892.56;;;16.33;100.00
31096;BME280;17749;51.962;8.560;2023-07-20T06:27:49;99893.31;;;16.35;100.00
31096;BME280;17749;51.962;8.560;2023-07-20T06:30:16;99895.59;;;16.41;100.00
31096;BME280;17749;51.962;8.560;2023-07-20T06:32:43;99890.75;;;16.46;100.00
31096;BME280;17749;51.962;8.560;2023-07-20T06:35:10;99896.69;;;16.51;100.00
31096;BME280;17749;51.962;8.560;2023-07-20T06:37:37;99899.94;;;16.56;100.00
31096;BME280;17749;51.962;8.560;2023-07-20T06:40:05;99904.31;;;16.57;100.00
31096;BME280;17749;51.962;8.560;2023-07-20T06:42:36;99905.41;;;16.68;100.00
31096;BME280;17749;51.962;8.560;2023-07-20T06:45:07;99905.56;;;16.79;100.00
31096;BME280;17749;51.962;8.560;2023-07-20T06:47:38;99907.72;;;16.86;100.00
31096;BME280;17749;51.962;8.560;2023-07-20T06:50:06;99909.81;;;17.08;100.00
31096;BME280;17749;51.962;8.560;2023-07-20T06:52:34;99911.81;;;17.30;100.00
31096;BME280;17749;51.962;8.560;2023-07-20T06:55:01;99908.78;;;17.48;100.00
31096;BME280;17749;51.962;8.560;2023-07-20T06:57:32;99904.63;;;17.68;100.00
31096;BME280;17749;51.962;8.560;2023-07-20T06:59:59;99905.69;;;17.78;100.00
31096;BME280;17749;51.962;8.560;2023-07-20T07:02:26;99915.41;;;17.81;100.00
31096;BME280;17749;51.962;8.560;2023-07-20T07:04:53;99912.78;;;17.92;100.00
31096;BME280;17749;51.962;8.560;2023-07-20T07:07:42;99908.38;;;18.15;100.00
31096;BME280;17749;51.962;8.560;2023-07-20T07:10:09;99911.53;;;18.33;100.00
31096;BME280;17749;51.962;8.560;2023-07-20T07:12:36;99918.91;;;18.66;100.00
31096;BME280;17749;51.962;8.560;2023-07-20T07:15:04;99916.59;;;18.97;100.00
31096;BME280;17749;51.962;8.560;2023-07-20T07:17:33;99927.63;;;19.16;100.00
31096;BME280;17749;51.962;8.560;2023-07-20T07:20:01;99917.47;;;19.42;100.00
31096;BME280;17749;51.962;8.560;2023-07-20T07:22:28;99923.72;;;19.65;100.00
31096;BME280;17749;51.962;8.560;2023-07-20T07:24:56;99920.50;;;20.05;100.00
31096;BME280;17749;51.962;8.560;2023-07-20T07:27:23;99919.03;;;20.01;100.00
31096;BME280;17749;51.962;8.560;2023-07-20T07:29:51;99927.94;;;19.81;100.00
31096;BME280;17749;51.962;8.560;2023-07-20T07:32:18;99923.97;;;19.85;100.00
31096;BME280;17749;51.962;8.560;2023-07-20T07:34:45;99925.91;;;20.05;100.00
31096;BME280;17749;51.962;8.560;2023-07-20T07:37:15;99927.00;;;20.46;100.00
31096;BME280;17749;51.962;8.560;2023-07-20T07:39:44;99922.13;;;20.93;100.00
31096;BME280;17749;51.962;8.560;2023-07-20T07:42:11;99924.88;;;21.24;100.00
31096;BME280;17749;51.962;8.560;2023-07-20T07:44:39;99920.78;;;21.60;100.00
31096;BME280;17749;51.962;8.560;2023-07-20T07:47:06;99927.47;;;21.97;100.00
31096;BME280;17749;51.962;8.560;2023-07-20T07:49:33;99928.72;;;22.33;100.00
31096;BME280;17749;51.962;8.560;2023-07-20T07:52:01;99930.41;;;22.63;100.00
31096;BME280;17749;51.962;8.560;2023-07-20T07:54:29;99933.28;;;22.91;100.00
31096;BME280;17749;51.962;8.560;2023-07-20T07:56:56;99938.41;;;22.94;100.00
31096;BME280;17749;51.962;8.560;2023-07-20T07:59:23;99939.88;;;22.69;100.00
31096;BME280;17749;51.962;8.560;2023-07-20T08:01:50;99948.97;;;22.29;100.00
31096;BME280;17749;51.962;8.560;2023-07-20T08:04:17;99943.56;;;22.39;100.00
31096;BME280;17749;51.962;8.560;2023-07-20T08:06:45;99942.44;;;22.80;100.00
31096;BME280;17749;51.962;8.560;2023-07-20T08:09:12;99942.72;;;23.06;100.00
31096;BME280;17749;51.962;8.560;2023-07-20T08:11:39;99946.13;;;22.89;100.00
31096;BME280;17749;51.962;8.560;2023-07-20T08:14:06;99941.28;;;22.73;100.00
31096;BME280;17749;51.962;8.560;2023-07-20T08:16:34;99952.13;;;22.44;100.00
31096;BME280;17749;51.962;8.560;2023-07-20T08:19:01;99954.69;;;22.36;100.00
31096;BME280;17749;51.962;8.560;2023-07-20T08:21:29;99948.00;;;22.59;100.00
31096;BME280;17749;51.962;8.560;2023-07-20T08:23:56;99947.44;;;22.85;100.00
31096;BME280;17749;51.962;8.560;2023-07-20T08:26:23;99950.44;;;23.01;100.00
31096;BME280;17749;51.962;8.560;2023-07-20T08:28:51;99939.75;;;23.37;100.00
31096;BME280;17749;51.962;8.560;2023-07-20T08:31:19;99951.22;;;23.78;100.00
31096;BME280;17749;51.962;8.560;2023-07-20T08:33:47;99953.16;;;23.95;96.99
31096;BME280;17749;51.962;8.560;2023-07-20T08:36:16;99957.06;;;23.83;100.00
31096;BME280;17749;51.962;8.560;2023-07-20T08:38:43;99957.47;;;23.88;100.00
31096;BME280;17749;51.962;8.560;2023-07-20T08:41:10;99954.38;;;24.11;100.00
31096;BME280;17749;51.962;8.560;2023-07-20T08:43:41;99958.44;;;23.97;100.00
31096;BME280;17749;51.962;8.560;2023-07-20T08:46:11;99951.94;;;24.25;99.06
31096;BME280;17749;51.962;8.560;2023-07-20T08:48:41;99953.50;;;24.56;96.35
31096;BME280;17749;51.962;8.560;2023-07-20T08:51:10;99958.06;;;24.91;92.83
31096;BME280;17749;51.962;8.560;2023-07-20T08:53:38;99956.44;;;25.16;92.92
31096;BME280;17749;51.962;8.560;2023-07-20T08:56:06;99946.81;;;25.30;88.73
31096;BME280;17749;51.962;8.560;2023-07-20T08:58:35;99954.41;;;25.44;85.31
31096;BME280;17749;51.962;8.560;2023-07-20T09:01:03;99954.56;;;25.43;83.46
31096;BME280;17749;51.962;8.560;2023-07-20T09:03:32;99956.44;;;25.42;82.99
31096;BME280;17749;51.962;8.560;2023-07-20T09:05:59;99953.16;;;25.39;82.62
31096;BME280;17749;51.962;8.560;2023-07-20T09:08:27;99952.56;;;25.53;81.98
31096;BME280;17749;51.962;8.560;2023-07-20T09:10:54;99950.44;;;25.39;82.61
31096;BME280;17749;51.962;8.560;2023-07-20T09:13:21;99948.63;;;25.21;82.09
31096;BME280;17749;51.962;8.560;2023-07-20T09:15:53;99953.38;;;25.01;84.56
31096;BME280;17749;51.962;8.560;2023-07-20T09:18:28;99951.28;;;24.95;85.81
31096;BME280;17749;51.962;8.560;2023-07-20T09:21:00;99956.16;;;25.27;82.30
31096;BME280;17749;51.962;8.560;2023-07-20T09:23:36;99960.06;;;25.51;76.35
31096;BME280;17749;51.962;8.560;2023-07-20T09:26:13;99952.63;;;25.61;75.67
31096;BME280;17749;51.962;8.560;2023-07-20T09:28:51;99955.19;;;25.89;77.24
31096;BME280;17749;51.962;8.560;2023-07-20T09:31:21;99954.69;;;26.01;74.06
31096;BME280;17749;51.962;8.560;2023-07-20T09:33:52;99954.38;;;25.70;74.89
31096;BME280;17749;51.962;8.560;2023-07-20T09:36:23;99965.69;;;25.23;76.88
31096;BME280;17749;51.962;8.560;2023-07-20T09:39:10;99955.72;;;24.96;79.52
31096;BME280;17749;51.962;8.560;2023-07-20T09:41:41;99975.44;;;24.72;82.25
31096;BME280;17749;51.962;8.560;2023-07-20T09:44:14;99960.19;;;24.79;82.77
31096;BME280;17749;51.962;8.560;2023-07-20T09:46:47;99957.03;;;25.10;81.59
31096;BME280;17749;51.962;8.560;2023-07-20T09:49:17;99954.00;;;25.31;77.74
31096;BME280;17749;51.962;8.560;2023-07-20T09:51:48;99964.13;;;25.21;78.62
31096;BME280;17749;51.962;8.560;2023-07-20T09:54:17;99966.63;;;24.96;78.95
31096;BME280;17749;51.962;8.560;2023-07-20T09:56:45;99953.78;;;24.88;78.66
31096;BME280;17749;51.962;8.560;2023-07-20T09:59:12;99964.44;;;25.00;80.79
31096;BME280;17749;51.962;8.560;2023-07-20T10:01:41;99962.16;;;25.13;80.47
31096;BME280;17749;51.962;8.560;2023-07-20T10:04:11;99962.78;;;25.07;79.13
31096;BME280;17749;51.962;8.560;2023-07-20T10:06:42;99949.81;;;25.19;76.48
31096;BME280;17749;51.962;8.560;2023-07-20T10:09:10;99955.63;;;25.06;73.78
31096;BME280;17749;51.962;8.560;2023-07-20T10:11:45;99950.16;;;24.80;76.27
31096;BME280;17749;51.962;8.560;2023-07-20T10:14:41;99953.97;;;24.69;76.91
31096;BME280;17749;51.962;8.560;2023-07-20T10:17:11;99958.78;;;24.75;77.20
31096;BME280;17749;51.962;8.560;2023-07-20T10:19:47;99957.34;;;25.07;75.25
31096;BME280;17749;51.962;8.560;2023-07-20T10:22:20;99952.97;;;25.14;75.82
31096;BME280;17749;51.962;8.560;2023-07-20T10:24:52;99959.69;;;25.20;74.16
31096;BME280;17749;51.962;8.560;2023-07-20T10:27:26;99944.97;;;25.39;72.35
31096;BME280;17749;51.962;8.560;2023-07-20T10:29:53;99950.19;;;25.50;71.42
31096;BME280;17749;51.962;8.560;2023-07-20T10:32:22;99953.66;;;25.60;72.74
31096;BME280;17749;51.962;8.560;2023-07-20T10:34:52;99956.09;;;25.45;73.22
31096;BME280;17749;51.962;8.560;2023-07-20T10:37:45;99939.75;;;25.19;76.09
31096;BME280;17749;51.962;8.560;2023-07-20T10:43:07;99939.47;;;25.56;74.31
31096;BME280;17749;51.962;8.560;2023-07-20T10:48:07;99942.44;;;25.71;71.51
31096;BME280;17749;51.962;8.560;2023-07-20T10:50:40;99943.78;;;25.67;72.58
31096;BME280;17749;51.962;8.560;2023-07-20T10:53:18;99939.31;;;25.58;71.68
31096;BME280;17749;51.962;8.560;2023-07-20T10:55:45;99947.28;;;25.25;68.96
31096;BME280;17749;51.962;8.560;2023-07-20T10:58:17;99944.41;;;25.09;72.82
31096;BME280;17749;51.962;8.560;2023-07-20T11:01:04;99935.84;;;25.04;70.39
31096;BME280;17749;51.962;8.560;2023-07-20T11:03:34;99935.25;;;25.10;70.61
31096;BME280;17749;51.962;8.560;2023-07-20T11:09:09;99938.81;;;25.28;71.52
31096;BME280;17749;51.962;8.560;2023-07-20T11:11:48;99939.34;;;25.32;69.47
31096;BME280;17749;51.962;8.560;2023-07-20T11:14:23;99940.63;;;25.54;68.63
31096;BME280;17749;51.962;8.560;2023-07-20T11:16:52;99937.25;;;25.52;67.71
31096;BME280;17749;51.962;8.560;2023-07-20T11:19:24;99935.84;;;25.48;69.52
31096;BME280;17749;51.962;8.560;2023-07-20T11:21:56;99934.31;;;25.19;67.91
31096;BME280;17749;51.962;8.560;2023-07-20T11:24:30;99936.63;;;25.14;70.02
31096;BME280;17749;51.962;8.560;2023-07-20T11:26:58;99933.19;;;25.12;70.91
31096;BME280;17749;51.962;8.560;2023-07-20T11:29:27;99929.84;;;24.74;72.06
31096;BME280;17749;51.962;8.560;2023-07-20T11:32:01;99932.63;;;24.82;72.80
31096;BME280;17749;51.962;8.560;2023-07-20T11:34:32;99937.84;;;24.76;72.71
31096;BME280;17749;51.962;8.560;2023-07-20T11:37:00;99935.81;;;24.60;73.84
31096;BME280;17749;51.962;8.560;2023-07-20T11:39:30;99933.09;;;24.60;72.52
31096;BME280;17749;51.962;8.560;2023-07-20T11:41:58;99929.84;;;24.74;73.17
31096;BME280;17749;51.962;8.560;2023-07-20T11:48:02;99913.13;;;25.13;70.59
31096;BME280;17749;51.962;8.560;2023-07-20T11:50:30;99921.38;;;25.21;71.44
31096;BME280;17749;51.962;8.560;2023-07-20T11:52:57;99918.16;;;25.00;71.06
31096;BME280;17749;51.962;8.560;2023-07-20T11:55:24;99916.16;;;24.66;71.06
31096;BME280;17749;51.962;8.560;2023-07-20T11:58:02;99920.59;;;24.67;73.12
31096;BME280;17749;51.962;8.560;2023-07-20T12:00:30;99918.63;;;24.77;72.35
31096;BME280;17749;51.962;8.560;2023-07-20T12:02:57;99915.31;;;24.91;73.29
31096;BME280;17749;51.962;8.560;2023-07-20T12:05:24;99912.06;;;24.88;71.13
31096;BME280;17749;51.962;8.560;2023-07-20T12:07:54;99903.88;;;24.62;72.85
31096;BME280;17749;51.962;8.560;2023-07-20T12:10:26;99909.56;;;24.68;72.30
31096;BME280;17749;51.962;8.560;2023-07-20T12:12:53;99909.16;;;24.81;72.84
31096;BME280;17749;51.962;8.560;2023-07-20T12:15:25;99911.94;;;24.89;71.84
31096;BME280;17749;51.962;8.560;2023-07-20T12:17:58;99907.31;;;25.08;72.15
31096;BME280;17749;51.962;8.560;2023-07-20T12:20:35;99905.34;;;25.18;73.04
31096;BME280;17749;51.962;8.560;2023-07-20T12:23:10;99908.13;;;25.26;71.66
31096;BME280;17749;51.962;8.560;2023-07-20T12:25:45;99901.31;;;25.30;69.65
31096;BME280;17749;51.962;8.560;2023-07-20T12:28:19;99894.47;;;25.00;68.23
31096;BME280;17749;51.962;8.560;2023-07-20T12:30:47;99901.66;;;24.83;68.54
31096;BME280;17749;51.962;8.560;2023-07-20T12:33:23;99901.16;;;24.62;69.96
31096;BME280;17749;51.962;8.560;2023-07-20T12:35:50;99899.38;;;24.53;71.18
31096;BME280;17749;51.962;8.560;2023-07-20T12:38:18;99899.06;;;24.56;68.64
31096;BME280;17749;51.962;8.560;2023-07-20T12:40:45;99896.66;;;24.53;69.30
31096;BME280;17749;51.962;8.560;2023-07-20T12:43:12;99894.13;;;24.41;69.69
31096;BME280;17749;51.962;8.560;2023-07-20T12:45:39;99890.19;;;24.54;70.29
31096;BME280;17749;51.962;8.560;2023-07-20T12:48:07;99887.22;;;24.65;70.35
31096;BME280;17749;51.962;8.560;2023-07-20T12:50:34;99885.56;;;24.72;68.86
31096;BME280;17749;51.962;8.560;2023-07-20T12:53:01;99888.94;;;24.66;69.41
31096;BME280;17749;51.962;8.560;2023-07-20T12:55:30;99891.72;;;24.74;68.69
31096;BME280;17749;51.962;8.560;2023-07-20T12:57:57;99877.00;;;24.85;68.42
31096;BME280;17749;51.962;8.560;2023-07-20T13:00:24;99874.22;;;25.03;69.51
31096;BME280;17749;51.962;8.560;2023-07-20T13:02:52;99883.31;;;25.11;67.90
31096;BME280;17749;51.962;8.560;2023-07-20T13:05:35;99877.41;;;25.16;67.34
31096;BME280;17749;51.962;8.560;2023-07-20T13:08:05;99877.78;;;25.21;69.37
31096;BME280;17749;51.962;8.560;2023-07-20T13:10:35;99874.22;;;25.21;68.80
31096;BME280;17749;51.962;8.560;2023-07-20T13:13:02;99878.31;;;25.25;68.11
31096;BME280;17749;51.962;8.560;2023-07-20T13:15:31;99875.09;;;25.29;67.30
31096;BME280;17749;51.962;8.560;2023-07-20T13:18:01;99866.94;;;25.29;65.42
31096;BME280;17749;51.962;8.560;2023-07-20T13:20:28;99868.63;;;25.30;67.24
31096;BME280;17749;51.962;8.560;2023-07-20T13:22:56;99859.44;;;25.31;65.52
31096;BME280;17749;51.962;8.560;2023-07-20T13:25:24;99870.69;;;25.28;66.74
31096;BME280;17749;51.962;8.560;2023-07-20T13:27:51;99864.19;;;25.29;67.75
31096;BME280;17749;51.962;8.560;2023-07-20T13:30:18;99867.44;;;25.07;66.68
31096;BME280;17749;51.962;8.560;2023-07-20T13:32:47;99866.22;;;25.01;66.64
31096;BME280;17749;51.962;8.560;2023-07-20T13:35:16;99865.16;;;25.20;67.50
31096;BME280;17749;51.962;8.560;2023-07-20T13:37:44;99861.50;;;25.38;66.47
31096;BME280;17749;51.962;8.560;2023-07-20T13:40:11;99870.09;;;25.51;66.54
31096;BME280;17749;51.962;8.560;2023-07-20T13:42:40;99867.56;;;25.57;66.79
31096;BME280;17749;51.962;8.560;2023-07-20T13:45:10;99866.69;;;25.57;66.25
31096;BME280;17749;51.962;8.560;2023-07-20T13:47:37;99862.97;;;25.58;64.67
31096;BME280;17749;51.962;8.560;2023-07-20T13:50:06;99865.66;;;25.50;64.76
31096;BME280;17749;51.962;8.560;2023-07-20T13:52:33;99862.91;;;25.42;62.25
31096;BME280;17749;51.962;8.560;2023-07-20T13:55:04;99865.56;;;25.33;64.36
31096;BME280;17749;51.962;8.560;2023-07-20T13:57:32;99859.06;;;25.26;63.84
31096;BME280;17749;51.962;8.560;2023-07-20T14:00:03;99868.13;;;25.35;65.57
31096;BME280;17749;51.962;8.560;2023-07-20T14:02:37;99866.00;;;25.47;64.68
31096;BME280;17749;51.962;8.560;2023-07-20T14:05:08;99858.09;;;25.35;62.86
31096;BME280;17749;51.962;8.560;2023-07-20T14:07:39;99857.91;;;25.29;65.10
31096;BME280;17749;51.962;8.560;2023-07-20T14:10:07;99855.41;;;25.44;64.29
31096;BME280;17749;51.962;8.560;2023-07-20T14:12:37;99846.72;;;25.40;64.82
31096;BME280;17749;51.962;8.560;2023-07-20T14:15:04;99846.94;;;25.55;64.11
31096;BME280;17749;51.962;8.560;2023-07-20T14:17:31;99847.47;;;25.58;63.39
31096;BME280;17749;51.962;8.560;2023-07-20T14:19:59;99846.13;;;25.63;61.41
31096;BME280;17749;51.962;8.560;2023-07-20T14:22:25;99847.59;;;25.49;61.23
31096;BME280;17749;51.962;8.560;2023-07-20T14:24:53;99855.00;;;25.30;63.84
31096;BME280;17749;51.962;8.560;2023-07-20T14:27:21;99852.88;;;25.16;62.32
31096;BME280;17749;51.962;8.560;2023-07-20T14:29:48;99846.50;;;25.33;62.93
31096;BME280;17749;51.962;8.560;2023-07-20T14:32:15;99840.94;;;25.51;61.97
31096;BME280;17749;51.962;8.560;2023-07-20T14:34:42;99846.97;;;25.63;63.01
31096;BME280;17749;51.962;8.560;2023-07-20T14:37:10;99843.53;;;25.53;62.08
31096;BME280;17749;51.962;8.560;2023-07-20T14:39:37;99849.06;;;25.35;61.34
31096;BME280;17749;51.962;8.560;2023-07-20T14:42:05;99847.19;;;25.35;61.21
31096;BME280;17749;51.962;8.560;2023-07-20T14:44:33;99849.31;;;25.50;61.69
31096;BME280;17749;51.962;8.560;2023-07-20T14:47:00;99843.53;;;25.53;61.78
31096;BME280;17749;51.962;8.560;2023-07-20T14:49:40;99852.41;;;25.55;61.96
31096;BME280;17749;51.962;8.560;2023-07-20T14:52:10;99848.63;;;25.48;61.64
31096;BME280;17749;51.962;8.560;2023-07-20T14:54:40;99849.66;;;25.47;62.17
31096;BME280;17749;51.962;8.560;2023-07-20T14:57:07;99849.31;;;25.50;62.06
31096;BME280;17749;51.962;8.560;2023-07-20T14:59:42;99850.97;;;25.43;64.22
31096;BME280;17749;51.962;8.560;2023-07-20T15:02:09;99852.44;;;25.03;64.87
31096;BME280;17749;51.962;8.560;2023-07-20T15:04:36;99844.75;;;24.72;66.10
31096;BME280;17749;51.962;8.560;2023-07-20T15:07:04;99845.78;;;24.53;67.43
31096;BME280;17749;51.962;8.560;2023-07-20T15:09:31;99848.56;;;24.43;68.19
31096;BME280;17749;51.962;8.560;2023-07-20T15:11:58;99846.56;;;24.45;68.41
31096;BME280;17749;51.962;8.560;2023-07-20T15:14:26;99830.69;;;24.23;69.04
31096;BME280;17749;51.962;8.560;2023-07-20T15:16:53;99841.28;;;24.08;70.60
31096;BME280;17749;51.962;8.560;2023-07-20T15:19:20;99849.34;;;24.00;70.94
31096;BME280;17749;51.962;8.560;2023-07-20T15:21:49;99857.97;;;23.95;70.92
31096;BME280;17749;51.962;8.560;2023-07-20T15:24:16;99844.38;;;23.95;70.98
31096;BME280;17749;51.962;8.560;2023-07-20T15:26:44;99835.91;;;23.98;70.96
31096;BME280;17749;51.962;8.560;2023-07-20T15:29:12;99843.03;;;23.99;71.16
31096;BME280;17749;51.962;8.560;2023-07-20T15:31:42;99842.56;;;23.86;70.07
31096;BME280;17749;51.962;8.560;2023-07-20T15:34:12;99840.47;;;23.70;70.54
31096;BME280;17749;51.962;8.560;2023-07-20T15:36:42;99837.22;;;23.67;72.12
31096;BME280;17749;51.962;8.560;2023-07-20T15:39:09;99830.94;;;23.66;70.76
31096;BME280;17749;51.962;8.560;2023-07-20T15:41:37;99825.34;;;23.68;69.88
31096;BME280;17749;51.962;8.560;2023-07-20T15:44:04;99829.78;;;23.69;71.73
31096;BME280;17749;51.962;8.560;2023-07-20T15:46:43;99824.19;;;23.70;70.92
31096;BME280;17749;51.962;8.560;2023-07-20T15:49:12;99824.91;;;23.72;70.01
31096;BME280;17749;51.962;8.560;2023-07-20T15:51:40;99820.34;;;23.73;70.11
31096;BME280;17749;51.962;8.560;2023-07-20T15:54:09;99820.34;;;23.73;69.88
31096;BME280;17749;51.962;8.560;2023-07-20T15:56:38;99821.34;;;23.72;69.55
31096;BME280;17749;51.962;8.560;2023-07-20T15:59:10;99815.16;;;23.70;70.72
31096;BME280;17749;51.962;8.560;2023-07-20T16:01:38;99807.47;;;23.65;70.24
31096;BME280;17749;51.962;8.560;2023-07-20T16:04:11;99801.09;;;23.56;68.76
31096;BME280;17749;51.962;8.560;2023-07-20T16:06:41;99806.13;;;23.51;68.80
31096;BME280;17749;51.962;8.560;2023-07-20T16:09:08;99804.13;;;23.53;69.10
31096;BME280;17749;51.962;8.560;2023-07-20T16:11:36;99794.47;;;23.41;69.29
31096;BME280;17749;51.962;8.560;2023-07-20T16:14:05;99795.38;;;23.32;70.00
31096;BME280;17749;51.962;8.560;2023-07-20T16:16:34;99789.69;;;23.25;70.82
31096;BME280;17749;51.962;8.560;2023-07-20T16:19:02;99801.25;;;23.27;70.63
31096;BME280;17749;51.962;8.560;2023-07-20T16:21:29;99803.72;;;23.21;69.59
31096;BME280;17749;51.962;8.560;2023-07-20T16:23:59;99798.47;;;23.09;70.59
31096;BME280;17749;51.962;8.560;2023-07-20T16:26:28;99797.53;;;23.01;70.96
31096;BME280;17749;51.962;8.560;2023-07-20T16:28:55;99792.09;;;22.91;70.24
31096;BME280;17749;51.962;8.560;2023-07-20T16:31:25;99796.69;;;22.81;70.85
31096;BME280;17749;51.962;8.560;2023-07-20T16:33:52;99791.25;;;22.81;72.27
31096;BME280;17749;51.962;8.560;2023-07-20T16:36:32;99784.88;;;22.72;72.08
31096;BME280;17749;51.962;8.560;2023-07-20T16:39:03;99785.31;;;22.67;72.78
31096;BME280;17749;51.962;8.560;2023-07-20T16:41:34;99781.88;;;22.65;73.64
31096;BME280;17749;51.962;8.560;2023-07-20T16:44:04;99777.59;;;22.53;71.25
31096;BME280;17749;51.962;8.560;2023-07-20T16:46:32;99782.22;;;22.43;71.42
31096;BME280;17749;51.962;8.560;2023-07-20T16:49:03;99785.78;;;22.34;73.84
31096;BME280;17749;51.962;8.560;2023-07-20T16:51:36;99780.66;;;22.21;73.27
31096;BME280;17749;51.962;8.560;2023-07-20T16:54:03;99771.66;;;22.10;74.51
31096;BME280;17749;51.962;8.560;2023-07-20T16:56:32;99780.78;;;22.09;74.19
31096;BME280;17749;51.962;8.560;2023-07-20T16:58:59;99779.94;;;22.09;75.23
31096;BME280;17749;51.962;8.560;2023-07-20T17:01:26;99778.06;;;22.00;75.53
31096;BME280;17749;51.962;8.560;2023-07-20T17:03:53;99781.06;;;21.97;75.23
31096;BME280;17749;51.962;8.560;2023-07-20T17:06:21;99778.66;;;21.94;74.95
31096;BME280;17749;51.962;8.560;2023-07-20T17:08:48;99778.81;;;21.82;74.59
31096;BME280;17749;51.962;8.560;2023-07-20T17:11:15;99781.09;;;21.77;75.86
31096;BME280;17749;51.962;8.560;2023-07-20T17:13:43;99767.09;;;21.72;77.07
31096;BME280;17749;51.962;8.560;2023-07-20T17:16:10;99771.63;;;21.72;77.63
31096;BME280;17749;51.962;8.560;2023-07-20T17:18:37;99760.50;;;21.65;77.58
31096;BME280;17749;51.962;8.560;2023-07-20T17:21:05;99774.19;;;21.63;78.46
31096;BME280;17749;51.962;8.560;2023-07-20T17:23:32;99769.34;;;21.57;78.78
31096;BME280;17749;51.962;8.560;2023-07-20T17:26:02;99757.22;;;21.52;79.44
31096;BME280;17749;51.962;8.560;2023-07-20T17:28:33;99761.91;;;21.50;80.46
31096;BME280;17749;51.962;8.560;2023-07-20T17:31:03;99763.34;;;21.44;79.39
31096;BME280;17749;51.962;8.560;2023-07-20T17:33:30;99768.41;;;21.37;79.17
31096;BME280;17749;51.962;8.560;2023-07-20T17:35:57;99753.56;;;21.32;79.32
31096;BME280;17749;51.962;8.560;2023-07-20T17:38:27;99751.56;;;21.24;80.05
31096;BME280;17749;51.962;8.560;2023-07-20T17:40:58;99760.69;;;21.23;79.98
31096;BME280;17749;51.962;8.560;2023-07-20T17:43:25;99752.41;;;21.15;79.44
31096;BME280;17749;51.962;8.560;2023-07-20T17:45:52;99756.38;;;21.11;79.74
31096;BME280;17749;51.962;8.560;2023-07-20T17:48:20;99746.38;;;21.01;80.34
31096;BME280;17749;51.962;8.560;2023-07-20T17:50:48;99751.06;;;20.99;80.18
31096;BME280;17749;51.962;8.560;2023-07-20T17:53:15;99741.47;;;20.86;81.41
31096;BME280;17749;51.962;8.560;2023-07-20T17:55:43;99742.59;;;20.83;82.24
31096;BME280;17749;51.962;8.560;2023-07-20T17:58:10;99744.59;;;20.81;84.11
31096;BME280;17749;51.962;8.560;2023-07-20T18:00:37;99751.25;;;20.77;85.98
31096;BME280;17749;51.962;8.560;2023-07-20T18:03:05;99745.09;;;20.75;85.51
31096;BME280;17749;51.962;8.560;2023-07-20T18:05:33;99741.09;;;20.69;87.34
31096;BME280;17749;51.962;8.560;2023-07-20T18:08:00;99742.03;;;20.58;87.74
31096;BME280;17749;51.962;8.560;2023-07-20T18:10:27;99732.50;;;20.54;88.10
31096;BME280;17749;51.962;8.560;2023-07-20T18:12:54;99739.84;;;20.52;88.24
31096;BME280;17749;51.962;8.560;2023-07-20T18:15:22;99732.41;;;20.45;90.24
31096;BME280;17749;51.962;8.560;2023-07-20T18:17:49;99733.66;;;20.41;89.67
31096;BME280;17749;51.962;8.560;2023-07-20T18:20:16;99732.50;;;20.33;88.55